Time;durP1;ratioP1;P1;durP2;ratioP2;P2;SDS_P1;SDS_P2;PMS_P1;PMS_P2;Temp;Humidity;BMP_temperature;BMP_pressure;BME280_temperature;BME280_humidity;BME280_pressure;Samples;Min_cycle;Max_cycle;Signal;HPM_P1;HPM_P2
2022/03/02 00:01:15;;;;;;;1999.90;999.90;;;;;;;0.60;61.65;162559.19;5056813;28;20392;-67
2022/03/02 00:03:43;;;;;;;1999.90;999.90;;;;;;;0.06;63.52;162415.63;5056217;28;20071;-67
2022/03/02 00:06:09;;;;;;;1999.90;999.90;;;;;;;0.33;63.27;162486.72;5062611;28;20503;-67
2022/03/02 00:08:37;;;;;;;1999.90;999.90;;;;;;;0.38;62.56;162499.03;5068288;28;20050;-67
2022/03/02 00:11:04;;;;;;;1999.90;999.90;;;;;;;0.13;63.77;162433.38;5058988;28;20051;-67
2022/03/02 00:13:31;;;;;;;1999.90;999.90;;;;;;;0.74;61.81;162594.75;5057110;28;20072;-67
2022/03/02 00:15:57;;;;;;;1999.90;999.90;;;;;;;0.90;61.25;162637.16;5054882;28;20048;-66
2022/03/02 00:18:24;;;;;;;1999.90;999.90;;;;;;;1.25;60.02;162731.59;5051293;28;20057;-67
2022/03/02 00:20:50;;;;;;;1999.90;999.90;;;;;;;1.05;60.78;162678.19;5060506;28;20040;-68
2022/03/02 00:23:17;;;;;;;1999.90;999.90;;;;;;;1.39;59.61;162769.88;5060412;28;20068;-68
2022/03/02 00:25:44;;;;;;;1999.90;999.90;;;;;;;1.22;59.96;162723.31;5066469;28;20352;-68
2022/03/02 00:28:10;;;;;;;1999.90;999.90;;;;;;;1.10;60.80;162690.50;5061635;28;20060;-68
2022/03/02 00:30:37;;;;;;;1999.90;999.90;;;;;;;1.07;60.10;162683.66;5072067;28;20052;-68
2022/03/02 00:33:03;;;;;;;1999.90;999.90;;;;;;;1.03;60.69;162674.09;5061641;28;20448;-68
2022/03/02 00:35:30;;;;;;;1999.90;999.90;;;;;;;0.86;61.83;162628.97;5062720;28;20051;-68
2022/03/02 00:37:56;;;;;;;1999.90;999.90;;;;;;;1.08;60.75;162685.06;5053495;28;20059;-68
2022/03/02 00:40:23;;;;;;;1999.90;999.90;;;;;;;1.17;61.03;162709.66;5062775;28;20103;-68
2022/03/02 00:42:49;;;;;;;1999.90;999.90;;;;;;;0.97;61.77;162657.69;5062499;28;20057;-68
2022/03/02 00:45:16;;;;;;;1999.90;999.90;;;;;;;0.83;62.19;162619.34;5058953;28;20056;-68
2022/03/02 00:47:43;;;;;;;1999.90;999.90;;;;;;;0.53;63.62;162540.03;5061826;28;20055;-68
2022/03/02 00:50:10;;;;;;;1999.90;999.90;;;;;;;0.37;64.64;162496.28;5053223;28;20045;-68
2022/03/02 00:52:37;;;;;;;1999.90;999.90;;;;;;;0.27;65.14;162471.66;5064562;28;20044;-68
2022/03/02 00:55:03;;;;;;;1999.90;999.90;;;;;;;-0.03;66.18;162392.38;5059768;28;20052;-68
2022/03/02 00:57:30;;;;;;;1999.90;999.90;;;;;;;-0.01;66.54;162397.81;5052691;28;20049;-68
2022/03/02 00:59:57;;;;;;;1999.90;999.90;;;;;;;0.05;66.50;162412.88;5062373;28;20044;-68
2022/03/02 01:02:24;;;;;;;1999.90;999.90;;;;;;;0.17;66.58;162444.31;5055565;28;20061;-68
2022/03/02 01:04:51;;;;;;;1999.90;999.90;;;;;;;0.15;66.57;162440.22;5054732;28;20049;-68
2022/03/02 01:07:17;;;;;;;1999.90;999.90;;;;;;;0.30;65.64;162478.53;5041588;28;20623;-68
2022/03/02 01:09:44;;;;;;;1999.90;999.90;;;;;;;-0.09;66.78;162374.56;5052665;28;20065;-68
2022/03/02 01:12:11;;;;;;;1999.90;999.90;;;;;;;-0.32;67.83;162314.44;5062423;28;20044;-68
2022/03/02 01:14:37;;;;;;;1999.90;999.90;;;;;;;-0.09;67.01;162375.97;5058312;28;20052;-68
2022/03/02 01:17:04;;;;;;;1999.90;999.90;;;;;;;-0.07;66.50;162381.41;5061813;28;20360;-68
2022/03/02 01:19:30;;;;;;;1999.90;999.90;;;;;;;-0.13;66.31;162363.69;5051095;28;20536;-68
2022/03/02 01:21:57;;;;;;;1999.90;999.90;;;;;;;-0.19;66.55;162348.63;5054926;28;20044;-68
2022/03/02 01:24:23;;;;;;;1999.90;999.90;;;;;;;-0.36;67.51;162303.50;5052388;28;20056;-68
2022/03/02 01:26:50;;;;;;;1999.90;999.90;;;;;;;-0.46;67.98;162277.56;5062046;28;20087;-68
2022/03/02 01:29:16;;;;;;;1999.90;999.90;;;;;;;-0.49;68.13;162267.97;5055639;28;20048;-68
2022/03/02 01:31:43;;;;;;;1999.90;999.90;;;;;;;-0.87;69.26;162166.88;5061412;28;20067;-68
2022/03/02 01:34:09;;;;;;;1999.90;999.90;;;;;;;-0.83;69.72;162177.75;5055825;28;20131;-68
2022/03/02 01:36:36;;;;;;;1999.90;999.90;;;;;;;-0.75;69.42;162201.00;5064188;28;20062;-68
2022/03/02 01:39:03;;;;;;;1999.90;999.90;;;;;;;-0.62;69.21;162233.81;5063787;28;20045;-68
2022/03/02 01:41:29;;;;;;;1999.90;999.90;;;;;;;-0.53;68.65;162258.41;5059032;28;20054;-68
2022/03/02 01:43:56;;;;;;;1999.90;999.90;;;;;;;-0.56;68.76;162250.22;5057343;28;20080;-68
2022/03/02 01:46:23;;;;;;;1999.90;999.90;;;;;;;-0.64;68.30;162228.31;5063575;28;20055;-68
2022/03/02 01:48:49;;;;;;;1999.90;999.90;;;;;;;-0.56;68.63;162250.22;5065250;28;20063;-68
2022/03/02 01:51:16;;;;;;;1999.90;999.90;;;;;;;-0.59;69.11;162242.03;5054850;28;20076;-68
2022/03/02 01:53:44;;;;;;;1999.90;999.90;;;;;;;-0.34;67.83;162309.00;5051067;28;20053;-68
2022/03/02 01:56:11;;;;;;;1999.90;999.90;;;;;;;-0.26;68.32;162330.84;5056887;28;20045;-68
2022/03/02 01:58:38;;;;;;;1999.90;999.90;;;;;;;-0.22;67.28;162341.78;5057994;28;20071;-68
2022/03/02 02:01:06;;;;;;;1999.90;999.90;;;;;;;-0.42;68.23;162288.44;5065168;28;20102;-68
2022/03/02 02:03:33;;;;;;;1999.90;999.90;;;;;;;-0.61;68.77;162236.53;5068594;28;20102;-68
2022/03/02 02:06:01;;;;;;;1999.90;999.90;;;;;;;-0.47;68.76;162273.47;5062892;28;20079;-68
2022/03/02 02:08:28;;;;;;;1999.90;999.90;;;;;;;-0.28;68.18;162324.00;5056247;28;20052;-68
2022/03/02 02:10:58;;;;;;;1999.90;999.90;;;;;;;-0.40;68.49;162293.94;5065321;28;20052;-68
2022/03/02 02:13:26;;;;;;;1999.90;999.90;;;;;;;-0.47;68.57;162273.47;5062152;28;20057;-68
2022/03/02 02:15:54;;;;;;;1999.90;999.90;;;;;;;-0.79;69.72;162190.09;5069294;28;20090;-68
2022/03/02 02:18:20;;;;;;;1999.90;999.90;;;;;;;-0.55;69.30;162252.97;5064581;28;20052;-68
2022/03/02 02:20:47;;;;;;;1999.90;999.90;;;;;;;-0.51;69.32;162263.84;5064951;28;20045;-68
2022/03/02 02:23:14;;;;;;;1999.90;999.90;;;;;;;-0.38;69.41;162299.38;5062746;28;20045;-68
2022/03/02 02:25:41;;;;;;;1999.90;999.90;;;;;;;-0.27;69.27;162326.72;5061539;28;20060;-68
2022/03/02 02:28:10;;;;;;;1999.90;999.90;;;;;;;-0.15;68.73;162359.53;5068264;28;20048;-68
2022/03/02 02:30:38;;;;;;;1999.90;999.90;;;;;;;-0.11;68.52;162369.13;5071792;28;20037;-69
2022/03/02 02:33:05;;;;;;;1999.90;999.90;;;;;;;-0.15;67.91;162358.19;5042492;28;20140;-68
2022/03/02 02:35:32;;;;;;;1999.90;999.90;;;;;;;-0.08;68.50;162378.66;5065243;28;20102;-69
2022/03/02 02:37:59;;;;;;;1999.90;999.90;;;;;;;-0.25;68.63;162333.59;5061960;28;20057;-68
2022/03/02 02:40:27;;;;;;;1999.90;999.90;;;;;;;-0.22;68.60;162341.78;5067935;28;20048;-68
2022/03/02 02:42:53;;;;;;;1999.90;999.90;;;;;;;0.06;67.97;162414.22;5063349;28;20075;-68
2022/03/02 02:45:23;;;;;;;1999.90;999.90;;;;;;;-0.05;68.32;162386.88;5065771;28;20091;-69
2022/03/02 02:47:54;;;;;;;1999.90;999.90;;;;;;;0.01;68.39;162400.56;5068519;28;20767;-68
2022/03/02 02:50:22;;;;;;;;;;;;;;;-0.03;68.15;162392.38;5068078;28;20602;-69
2022/03/02 02:52:50;;;;;;;1999.90;999.90;;;;;;;-0.04;68.00;162389.63;5057568;28;19921;-68
2022/03/02 02:55:17;;;;;;;1999.90;999.90;;;;;;;-0.23;68.81;162339.03;5061021;28;20060;-69
2022/03/02 02:57:44;;;;;;;1999.90;999.90;;;;;;;-0.10;68.64;162371.88;5055326;28;20049;-69
2022/03/02 03:00:18;;;;;;;1999.90;999.90;;;;;;;-0.18;68.76;162351.31;5052122;28;20052;-69
2022/03/02 03:02:47;;;;;;;1999.90;999.90;;;;;;;-0.23;69.35;162337.69;5060761;28;20056;-68
2022/03/02 03:05:17;;;;;;;1999.90;999.90;;;;;;;-0.20;69.14;162347.22;5066367;28;20064;-68
2022/03/02 03:07:45;;;;;;;1999.90;999.90;;;;;;;-0.20;68.65;162345.88;5066422;28;20044;-69
2022/03/02 03:10:13;;;;;;;1999.90;999.90;;;;;;;-0.32;69.18;162313.09;5065767;28;20040;-68
2022/03/02 03:12:40;;;;;;;1999.90;999.90;;;;;;;-0.29;69.82;162322.63;5062878;28;20052;-68
2022/03/02 03:15:09;;;;;;;1999.90;999.90;;;;;;;-0.31;70.22;162315.78;5053479;28;20430;-68
2022/03/02 03:17:35;;;;;;;1999.90;999.90;;;;;;;-0.50;70.08;162266.59;5053974;28;20057;-69
2022/03/02 03:20:04;;;;;;;1999.90;999.90;;;;;;;-0.44;69.99;162283.00;5064627;28;20118;-69
2022/03/02 03:22:31;;;;;;;1999.90;999.90;;;;;;;-0.34;70.35;162307.59;5060502;28;20131;-69
2022/03/02 03:24:58;;;;;;;1999.90;999.90;;;;;;;-0.33;69.96;162310.34;5057332;28;20052;-68
2022/03/02 03:27:25;;;;;;;1999.90;999.90;;;;;;;-0.32;70.34;162313.09;5062970;28;20076;-69
2022/03/02 03:29:51;;;;;;;1999.90;999.90;;;;;;;-0.30;70.15;162318.53;5066053;28;20542;-69
2022/03/02 03:32:18;;;;;;;1999.90;999.90;;;;;;;-0.55;71.08;162252.97;5055743;28;20058;-69
2022/03/02 03:34:44;;;;;;;1999.90;999.90;;;;;;;-0.39;70.45;162295.28;5060646;28;20056;-69
2022/03/02 03:37:11;;;;;;;1999.90;999.90;;;;;;;-0.27;70.00;162326.72;5056705;28;20052;-68
2022/03/02 03:39:38;;;;;;;1999.90;999.90;;;;;;;-0.41;70.17;162291.19;5063304;28;20052;-69
2022/03/02 03:42:05;;;;;;;1999.90;999.90;;;;;;;-0.31;69.91;162315.78;5050447;28;20049;-68
2022/03/02 03:44:31;;;;;;;1999.90;999.90;;;;;;;-0.29;69.76;162321.28;5064547;28;20492;-68
2022/03/02 03:46:58;;;;;;;1999.90;999.90;;;;;;;-0.29;69.59;162322.63;5063421;28;20065;-69
2022/03/02 03:49:24;;;;;;;1999.90;999.90;;;;;;;-0.31;70.43;162315.78;5060682;28;20110;-69
2022/03/02 03:51:51;;;;;;;1999.90;999.90;;;;;;;-0.33;70.31;162310.34;5061747;28;20346;-69
2022/03/02 03:54:17;;;;;;;1999.90;999.90;;;;;;;-0.29;69.11;162322.63;5062378;28;20041;-69
2022/03/02 03:56:44;;;;;;;1999.90;999.90;;;;;;;-0.57;70.15;162248.81;5062984;28;20056;-69
2022/03/02 03:59:10;;;;;;;1999.90;999.90;;;;;;;-0.59;70.13;162243.38;5064422;28;20098;-69
2022/03/02 04:01:37;;;;;;;1999.90;999.90;;;;;;;-0.62;69.96;162235.19;5064489;28;20056;-69
2022/03/02 04:04:04;;;;;;;1999.90;999.90;;;;;;;-0.68;70.17;162217.44;5052423;28;20044;-69
2022/03/02 04:06:30;;;;;;;1999.90;999.90;;;;;;;-0.92;71.65;162154.59;5052934;28;20103;-69
2022/03/02 04:08:57;;;;;;;1999.90;999.90;;;;;;;-1.00;71.59;162134.03;5057851;28;20045;-68
2022/03/02 04:11:24;;;;;;;1999.90;999.90;;;;;;;-1.03;72.81;162125.84;5065257;28;20065;-68
2022/03/02 04:13:53;;;;;;;1999.90;999.90;;;;;;;-0.85;72.36;162173.66;5065651;28;20044;-69
2022/03/02 04:16:19;;;;;;;1999.90;999.90;;;;;;;-0.76;72.02;162198.31;5062691;28;20048;-68
2022/03/02 04:18:46;;;;;;;1999.90;999.90;;;;;;;-0.72;71.74;162209.19;5063336;28;20135;-68
2022/03/02 04:21:13;;;;;;;1999.90;999.90;;;;;;;-0.77;71.84;162194.19;5058827;28;20048;-68
2022/03/02 04:23:39;;;;;;;1999.90;999.90;;;;;;;-0.79;72.06;162188.72;5064708;28;20044;-68
2022/03/02 04:26:06;;;;;;;1999.90;999.90;;;;;;;-0.83;71.69;162179.16;5065483;28;20079;-68
2022/03/02 04:28:32;;;;;;;1999.90;999.90;;;;;;;-0.87;71.97;162168.22;5064765;28;20052;-69
2022/03/02 04:30:59;;;;;;;1999.90;999.90;;;;;;;-0.81;71.78;162184.59;5061886;28;20407;-68
2022/03/02 04:33:25;;;;;;;1999.90;999.90;;;;;;;-0.82;71.69;162181.91;5058660;28;20063;-69
2022/03/02 04:35:52;;;;;;;1999.90;999.90;;;;;;;-0.68;71.58;162217.44;5061327;28;20380;-68
2022/03/02 04:38:18;;;;;;;1999.90;999.90;;;;;;;-0.64;71.47;162228.31;5049364;28;20093;-69
2022/03/02 04:40:45;;;;;;;1999.90;999.90;;;;;;;-0.63;71.39;162231.06;5057994;28;20049;-69
2022/03/02 04:43:11;;;;;;;1999.90;999.90;;;;;;;-0.65;70.77;162225.63;5062225;28;20109;-68
2022/03/02 04:45:38;;;;;;;1999.90;999.90;;;;;;;-0.67;70.96;162220.13;5061695;28;20048;-69
2022/03/02 04:48:05;;;;;;;1999.90;999.90;;;;;;;-0.79;71.02;162190.09;5064004;28;20060;-68
2022/03/02 04:50:32;;;;;;;1999.90;999.90;;;;;;;-0.86;71.31;162169.56;5061108;28;20369;-68
2022/03/02 04:52:58;;;;;;;1999.90;999.90;;;;;;;-0.98;71.49;162139.53;5064883;28;20367;-68
2022/03/02 04:55:25;;;;;;;1999.90;999.90;;;;;;;-0.92;71.43;162154.59;5058594;28;20613;-69
2022/03/02 04:57:54;;;;;;;1999.90;999.90;;;;;;;-0.94;71.85;162149.09;5062895;28;20052;-69
2022/03/02 05:00:35;;;;;;;1999.90;999.90;;;;;;;-0.94;72.18;162149.09;5065114;28;20056;-69
2022/03/02 05:03:05;;;;;;;1999.90;999.90;;;;;;;-0.82;72.16;162181.91;5055103;28;20048;-68
2022/03/02 05:05:34;;;;;;;1999.90;999.90;;;;;;;-0.95;72.26;162146.38;5057491;28;20056;-69
2022/03/02 05:08:01;;;;;;;1999.90;999.90;;;;;;;-0.98;72.85;162139.53;5059247;28;20631;-68
2022/03/02 05:10:29;;;;;;;1999.90;999.90;;;;;;;-0.96;73.52;162145.00;5064293;28;20040;-69
2022/03/02 05:12:58;;;;;;;1999.90;999.90;;;;;;;-1.05;73.43;162119.06;5061181;28;20055;-69
2022/03/02 05:15:25;;;;;;;1999.90;999.90;;;;;;;-1.19;73.43;162083.53;5060977;28;20082;-68
2022/03/02 05:17:52;;;;;;;1999.90;999.90;;;;;;;-1.30;73.84;162053.47;5061483;28;20045;-69
2022/03/02 05:20:20;;;;;;;1999.90;999.90;;;;;;;-1.46;74.97;162011.13;5066189;28;20056;-68
2022/03/02 05:22:47;;;;;;;1999.90;999.90;;;;;;;-1.44;74.87;162016.63;5060796;28;20044;-69
2022/03/02 05:25:15;;;;;;;1999.90;999.90;;;;;;;-1.50;75.28;162001.59;5061246;28;20056;-68
2022/03/02 05:27:43;;;;;;;1999.90;999.90;;;;;;;-1.39;75.10;162028.91;5066822;28;20060;-68
2022/03/02 05:30:15;;;;;;;1999.90;999.90;;;;;;;-1.16;74.67;162091.75;5057011;28;20052;-68
2022/03/02 05:32:41;;;;;;;1999.90;999.90;;;;;;;-1.23;74.43;162071.25;5057001;28;20044;-68
2022/03/02 05:35:09;;;;;;;1999.90;999.90;;;;;;;-1.14;73.73;162097.19;5047837;28;20056;-68
2022/03/02 05:37:35;;;;;;;1999.90;999.90;;;;;;;-1.52;74.89;161996.16;5056026;28;20049;-68
2022/03/02 05:40:04;;;;;;;1999.90;999.90;;;;;;;-1.82;76.68;161915.56;5057822;28;20058;-68
2022/03/02 05:42:30;;;;;;;1999.90;999.90;;;;;;;-1.63;76.31;161967.44;5056621;28;20352;-68
2022/03/02 05:44:57;;;;;;;1999.90;999.90;;;;;;;-1.75;76.60;161934.69;5071143;28;20056;-68
2022/03/02 05:47:23;;;;;;;1999.90;999.90;;;;;;;-1.67;76.38;161956.50;5070562;28;20043;-68
2022/03/02 05:49:50;;;;;;;1999.90;999.90;;;;;;;-1.62;76.60;161968.84;5070497;28;20113;-68
2022/03/02 05:52:18;;;;;;;1999.90;999.90;;;;;;;-1.49;75.71;162004.34;5054685;28;20052;-68
2022/03/02 05:54:45;;;;;;;1999.90;999.90;;;;;;;-1.45;75.77;162015.22;5057103;28;20064;-68
2022/03/02 05:57:11;;;;;;;1999.90;999.90;;;;;;;-1.43;76.26;162020.72;5068592;28;20094;-68
2022/03/02 05:59:38;;;;;;;1999.90;999.90;;;;;;;-1.38;75.79;162031.66;5064687;28;20056;-69
2022/03/02 06:02:05;;;;;;;1999.90;999.90;;;;;;;-1.13;75.35;162099.94;5065647;28;20041;-69
2022/03/02 06:04:32;;;;;;;1999.90;999.90;;;;;;;-1.01;75.04;162129.94;5062533;28;20119;-69
2022/03/02 06:06:59;;;;;;;1999.90;999.90;;;;;;;-0.96;74.85;162145.00;5060046;28;20052;-69
2022/03/02 06:09:25;;;;;;;1999.90;999.90;;;;;;;-0.84;73.80;162176.41;5067032;28;20353;-69
2022/03/02 06:11:53;;;;;;;1999.90;999.90;;;;;;;-0.80;74.32;162187.34;5069270;28;20472;-68
2022/03/02 06:14:19;;;;;;;1999.90;999.90;;;;;;;-0.74;74.08;162203.75;5076894;28;20060;-68
2022/03/02 06:16:46;;;;;;;1999.90;999.90;;;;;;;-0.64;74.44;162228.31;5056175;28;20102;-69
2022/03/02 06:19:13;;;;;;;1999.90;999.90;;;;;;;-0.50;73.99;162266.59;5065471;28;20060;-69
2022/03/02 06:21:43;;;;;;;1999.90;999.90;;;;;;;-0.42;74.16;162288.44;5060629;28;20051;-69
2022/03/02 06:24:10;;;;;;;1999.90;999.90;;;;;;;-0.32;73.78;162314.44;5061104;28;20139;-68
2022/03/02 06:26:37;;;;;;;1999.90;999.90;;;;;;;-0.24;72.95;162334.94;5063782;28;20048;-69
2022/03/02 06:29:03;;;;;;;1999.90;999.90;;;;;;;-0.60;73.62;162240.63;5064257;28;20044;-69
2022/03/02 06:31:31;;;;;;;1999.90;999.90;;;;;;;-1.17;75.58;162089.00;5060941;28;20040;-68
2022/03/02 06:33:58;;;;;;;1999.90;999.90;;;;;;;-1.10;76.22;162108.13;5066544;28;20055;-68
2022/03/02 06:36:25;;;;;;;1999.90;999.90;;;;;;;-0.95;75.72;162147.75;5065477;28;20354;-69
2022/03/02 06:38:51;;;;;;;1999.90;999.90;;;;;;;-0.68;74.84;162217.44;5065766;28;20045;-69
2022/03/02 06:41:47;;;;;;;1999.90;999.90;;;;;;;-0.32;73.67;162313.09;5067687;28;20374;-69
2022/03/02 06:44:26;;;;;;;1999.90;999.90;;;;;;;-0.36;73.78;162304.88;5009602;28;20046;-69
2022/03/02 06:47:06;;;;;;;1999.90;999.90;;;;;;;-0.21;74.04;162343.13;5066210;28;20798;-69
2022/03/02 06:50:02;;;;;;;1999.90;999.90;;;;;;;-0.18;73.90;162351.31;5062892;28;20064;-69
2022/03/02 06:52:35;;;;;;;1999.90;999.90;;;;;;;-0.05;73.81;162386.88;5055893;28;20056;-69
2022/03/02 06:55:06;;;;;;;1999.90;999.90;;;;;;;0.31;72.97;162482.63;5058250;28;20049;-69
2022/03/02 06:57:34;;;;;;;1999.90;999.90;;;;;;;0.48;72.47;162527.72;5062617;28;20051;-69
2022/03/02 07:00:16;;;;;;;1999.90;999.90;;;;;;;0.17;72.58;162445.66;5064437;28;20059;-69
2022/03/02 07:02:48;;;;;;;1999.90;999.90;;;;;;;0.51;72.51;162534.59;5064802;28;20109;-69
2022/03/02 07:05:17;;;;;;;1999.90;999.90;;;;;;;0.72;71.75;162590.66;5059638;28;20056;-68
2022/03/02 07:07:45;;;;;;;1999.90;999.90;;;;;;;0.59;71.00;162555.09;5041772;28;20389;-70
2022/03/02 07:10:12;;;;;;;1999.90;999.90;;;;;;;0.82;70.45;162616.59;5056134;28;20059;-70
2022/03/02 07:12:40;;;;;;;1999.90;999.90;;;;;;;0.85;70.34;162624.88;5053057;28;20048;-70
2022/03/02 07:15:07;;;;;;;1999.90;999.90;;;;;;;0.59;70.58;162556.44;5067329;28;20052;-70
2022/03/02 07:17:34;;;;;;;1999.90;999.90;;;;;;;-0.08;72.03;162378.66;5063039;28;20400;-67
2022/03/02 07:20:04;;;;;;;1999.90;999.90;;;;;;;0.77;71.21;162602.94;5053178;28;20049;-69
2022/03/02 07:22:33;;;;;;;1999.90;999.90;;;;;;;1.24;70.18;162728.84;5067629;28;20079;-68
2022/03/02 07:25:11;;;;;;;1999.90;999.90;;;;;;;1.53;68.70;162806.84;5063508;28;20049;-68
2022/03/02 07:27:40;;;;;;;1999.90;999.90;;;;;;;1.67;68.18;162843.78;5062371;28;20067;-68
2022/03/02 07:30:09;;;;;;;1999.90;999.90;;;;;;;1.51;67.38;162800.00;5052578;28;20350;-68
2022/03/02 07:32:37;;;;;;;1999.90;999.90;;;;;;;0.75;68.94;162597.50;5065665;28;20041;-68
2022/03/02 07:35:05;;;;;;;1999.90;999.90;;;;;;;1.38;67.77;162765.75;5052695;28;20076;-68
2022/03/02 07:37:32;;;;;;;1999.90;999.90;;;;;;;1.32;68.76;162750.69;5058548;28;20468;-68
2022/03/02 07:40:00;;;;;;;1999.90;999.90;;;;;;;1.28;69.43;162739.78;5055476;28;20048;-68
2022/03/02 07:42:26;;;;;;;1999.90;999.90;;;;;;;1.09;70.10;162689.16;5066725;28;20059;-68
2022/03/02 07:44:54;;;;;;;1999.90;999.90;;;;;;;1.55;69.28;162810.94;5061910;28;20450;-68
2022/03/02 07:47:21;;;;;;;1999.90;999.90;;;;;;;1.97;67.87;162921.84;5062343;28;20053;-68
2022/03/02 07:49:47;;;;;;;1999.90;999.90;;;;;;;2.09;67.97;162956.03;5065274;28;20054;-68
2022/03/02 07:52:16;;;;;;;1999.90;999.90;;;;;;;1.73;67.08;162860.22;5062759;28;20071;-68
2022/03/02 07:54:44;;;;;;;1999.90;999.90;;;;;;;1.82;67.02;162882.13;5064533;28;20384;-68
2022/03/02 07:57:13;;;;;;;1999.90;999.90;;;;;;;1.54;67.19;162808.19;5062584;28;20044;-68
2022/03/02 07:59:43;;;;;;;1999.90;999.90;;;;;;;2.57;66.47;163083.38;5060717;28;20056;-68
2022/03/02 08:02:12;;;;;;;1999.90;999.90;;;;;;;2.64;66.23;163101.22;5052907;28;20045;-68
2022/03/02 08:04:42;;;;;;;1999.90;999.90;;;;;;;2.27;65.59;163003.97;5063965;28;20512;-68
2022/03/02 08:07:10;;;;;;;1999.90;999.90;;;;;;;2.00;66.80;162931.41;5061784;28;20292;-67
2022/03/02 08:09:38;;;;;;;1999.90;999.90;;;;;;;2.27;66.25;163002.59;5054781;28;20048;-67
2022/03/02 08:12:07;;;;;;;1999.90;999.90;;;;;;;2.27;66.50;163003.97;5061408;28;20437;-68
2022/03/02 08:14:34;;;;;;;1999.90;999.90;;;;;;;2.41;65.71;163040.97;5061218;28;20118;-67
2022/03/02 08:17:02;;;;;;;1999.90;999.90;;;;;;;2.93;63.87;163177.91;5062629;28;20056;-67
2022/03/02 08:19:30;;;;;;;1999.90;999.90;;;;;;;2.61;65.25;163093.00;5058883;28;20130;-67
2022/03/02 08:22:04;;;;;;;1999.90;999.90;;;;;;;1.74;66.48;162862.97;5057517;28;20041;-67
2022/03/02 08:24:32;;;;;;;1999.90;999.90;;;;;;;1.91;66.92;162906.78;5061045;28;20109;-67
2022/03/02 08:27:01;;;;;;;1999.90;999.90;;;;;;;1.92;66.57;162909.47;5061331;28;20067;-67
2022/03/02 08:29:32;;;;;;;1999.90;999.90;;;;;;;2.36;66.29;163027.25;5067075;28;20060;-67
2022/03/02 08:32:02;;;;;;;1999.90;999.90;;;;;;;3.17;63.78;163242.31;5055625;28;20059;-67
2022/03/02 08:34:34;;;;;;;1999.90;999.90;;;;;;;3.33;62.95;163286.19;5058471;28;20430;-67
2022/03/02 08:37:01;;;;;;;1999.90;999.90;;;;;;;3.31;63.77;163280.69;5065530;28;20071;-67
2022/03/02 08:39:28;;;;;;;1999.90;999.90;;;;;;;3.51;62.82;163334.16;5058933;28;20519;-67
2022/03/02 08:41:55;;;;;;;1999.90;999.90;;;;;;;3.34;60.34;163288.91;5062581;28;20264;-67
2022/03/02 08:44:22;;;;;;;1999.90;999.90;;;;;;;4.14;59.87;163501.41;5061917;28;20052;-67
2022/03/02 08:46:49;;;;;;;1999.90;999.90;;;;;;;4.84;57.76;163687.94;5051523;28;20148;-67
2022/03/02 08:49:18;;;;;;;1999.90;999.90;;;;;;;3.99;58.38;163461.66;5054815;28;20061;-66
2022/03/02 08:51:48;;;;;;;1999.90;999.90;;;;;;;3.65;59.76;163371.16;5058170;28;20371;-67
2022/03/02 08:54:17;;;;;;;1999.90;999.90;;;;;;;4.66;57.76;163639.94;5052499;28;20059;-67
2022/03/02 08:56:44;;;;;;;1999.90;999.90;;;;;;;4.79;56.82;163672.84;5065369;28;20446;-67
2022/03/02 08:59:14;;;;;;;1999.90;999.90;;;;;;;5.21;55.13;163785.34;5063729;28;20048;-69
2022/03/02 09:01:47;;;;;;;1999.90;999.90;;;;;;;5.10;57.13;163756.53;5064199;28;20040;-67
2022/03/02 09:04:16;;;;;;;1999.90;999.90;;;;;;;5.48;55.66;163858.09;5065058;28;20408;-67
2022/03/02 09:06:44;;;;;;;1999.90;999.90;;;;;;;5.19;56.94;163781.22;5063553;28;20056;-68
2022/03/02 09:09:11;;;;;;;1999.90;999.90;;;;;;;5.41;55.99;163838.88;5061681;28;20350;-68
2022/03/02 09:11:42;;;;;;;1999.90;999.90;;;;;;;5.91;54.69;163973.41;5057084;28;20060;-68
2022/03/02 09:14:09;;;;;;;1999.90;999.90;;;;;;;4.35;54.70;163557.63;5054790;28;20059;-67
2022/03/02 09:16:39;;;;;;;1999.90;999.90;;;;;;;3.46;57.07;163320.44;5066536;28;20465;-67
2022/03/02 09:19:10;;;;;;;1999.90;999.90;;;;;;;5.01;55.51;163733.19;5062525;28;20430;-68
2022/03/02 09:21:37;;;;;;;1999.90;999.90;;;;;;;4.41;55.93;163574.06;5054847;28;20102;-67
2022/03/02 09:24:05;;;;;;;1999.90;999.90;;;;;;;4.74;54.51;163660.50;5061728;28;20052;-67
2022/03/02 09:26:33;;;;;;;1999.90;999.90;;;;;;;5.19;54.10;163779.88;5064401;28;20438;-67
2022/03/02 09:29:02;;;;;;;1999.90;999.90;;;;;;;4.15;54.50;163502.75;5061785;28;20053;-67
2022/03/02 09:31:29;;;;;;;1999.90;999.90;;;;;;;3.63;54.75;163364.28;5060378;28;20067;-67
2022/03/02 09:33:58;;;;;;;1999.90;999.90;;;;;;;3.81;56.93;163413.66;5065670;28;20060;-67
2022/03/02 09:36:26;;;;;;;1999.90;999.90;;;;;;;4.53;54.04;163605.63;5060185;28;20092;-67
2022/03/02 09:38:53;;;;;;;1999.90;999.90;;;;;;;4.28;54.91;163537.06;5061501;28;20341;-67
2022/03/02 09:41:40;;;;;;;1999.90;999.90;;;;;;;3.84;53.94;163421.88;5059138;28;20055;-67
2022/03/02 09:44:11;;;;;;;1999.90;999.90;;;;;;;4.84;55.05;163687.94;5062721;28;20044;-68
2022/03/02 09:46:39;;;;;;;1999.90;999.90;;;;;;;6.03;51.53;164003.66;5064920;28;20455;-68
2022/03/02 09:49:11;;;;;;;1999.90;999.90;;;;;;;6.37;50.54;164094.28;5063091;28;20048;-68
2022/03/02 09:51:42;;;;;;;1999.90;999.90;;;;;;;6.07;50.41;164014.63;5058916;28;20432;-68
2022/03/02 09:54:09;;;;;;;1999.90;999.90;;;;;;;4.28;52.52;163537.06;5062246;28;20411;-67
2022/03/02 09:56:37;;;;;;;1999.90;999.90;;;;;;;5.04;53.54;163740.06;5053915;28;20057;-67
2022/03/02 09:59:06;;;;;;;1999.90;999.90;;;;;;;5.29;51.10;163808.66;5061964;28;20421;-68
2022/03/02 10:01:35;;;;;;;1999.90;999.90;;;;;;;6.10;49.55;164024.28;5063612;28;20045;-68
2022/03/02 10:04:23;;;;;;;1999.90;999.90;;;;;;;5.13;49.23;163764.75;5066853;28;20061;-67
2022/03/02 10:07:26;;;;;;;1999.90;999.90;;;;;;;4.98;50.34;163724.97;5061513;28;20052;-68
2022/03/02 10:09:47;;;;;;;1999.90;999.90;;;;;;;5.57;48.40;163882.81;5060808;28;20361;-68
2022/03/02 10:12:24;;;;;;;1999.90;999.90;;;;;;;6.52;45.49;164135.50;5063915;28;20052;-68
2022/03/02 10:14:51;;;;;;;1999.90;999.90;;;;;;;5.59;48.50;163886.91;5060608;28;20045;-68
2022/03/02 10:17:20;;;;;;;1999.90;999.90;;;;;;;5.82;47.71;163948.66;5057342;28;20048;-67
2022/03/02 10:19:54;;;;;;;1999.90;999.90;;;;;;;6.02;48.63;164000.94;5064683;28;20137;-68
2022/03/02 10:22:39;;;;;;;1999.90;999.90;;;;;;;5.39;50.19;163833.38;5048609;28;20057;-67
2022/03/02 10:25:09;;;;;;;1999.90;999.90;;;;;;;6.59;46.93;164154.69;5062560;28;20118;-68
2022/03/02 10:27:58;;;;;;;1999.90;999.90;;;;;;;5.79;46.36;163940.44;5053860;28;20437;-68
2022/03/02 10:30:32;;;;;;;1999.90;999.90;;;;;;;6.87;45.51;164228.91;5060954;28;20059;-68
2022/03/02 10:33:18;;;;;;;1999.90;999.90;;;;;;;6.28;47.04;164070.94;5064399;28;20127;-68
2022/03/02 10:35:54;;;;;;;1999.90;999.90;;;;;;;6.21;46.98;164053.09;5060948;28;20285;-68
2022/03/02 10:38:30;;;;;;;1999.90;999.90;;;;;;;5.80;46.42;163943.19;5055615;28;20045;-68
2022/03/02 10:41:00;;;;;;;1999.90;999.90;;;;;;;7.03;44.03;164272.88;5069058;28;20044;-68
2022/03/02 10:43:38;;;;;;;1999.90;999.90;;;;;;;6.69;46.50;164182.19;5063908;28;20040;-68
2022/03/02 10:46:07;;;;;;;1999.90;999.90;;;;;;;4.87;47.62;163696.19;5064978;28;20044;-67
2022/03/02 10:48:42;;;;;;;1999.90;999.90;;;;;;;6.04;46.58;164006.41;5064771;28;20063;-68
2022/03/02 10:51:10;;;;;;;1999.90;999.90;;;;;;;6.37;45.12;164095.63;5053500;28;20326;-68
2022/03/02 10:53:40;;;;;;;1999.90;999.90;;;;;;;6.69;44.62;164182.19;5066121;28;20044;-68
2022/03/02 10:56:08;;;;;;;1999.90;999.90;;;;;;;6.82;45.48;164215.19;5062907;28;20052;-68